Time,TemperatureF,DewpointF,PressureIn,WindDirection,WindDirectionDegrees,WindSpeedMPH,WindSpeedGustMPH,Humidity,HourlyPrecipIn,Conditions,Clouds,dailyrainin,SoftwareType,DateUTC
2013-05-21 00:02:00,57.0,56.0,29.65,East,91,0.0,3.0,96,0.00,,,0.00,,2013-05-21 05:02:00,
2013-05-21 00:12:00,57.0,56.0,29.65,East,91,0.0,3.0,96,0.00,,,0.00,,2013-05-21 05:12:00,
2013-05-21 00:22:00,57.0,56.0,29.65,ESE,102,0.0,3.0,96,0.00,,,0.00,,2013-05-21 05:22:00,
2013-05-21 00:32:00,57.0,56.0,29.65,ESE,118,0.0,2.0,96,0.00,,,0.00,,2013-05-21 05:32:00,
2013-05-21 00:42:00,56.0,55.0,29.65,ENE,73,1.0,3.0,96,0.00,,,0.00,,2013-05-21 05:42:00,
2013-05-21 00:52:00,56.0,55.0,29.65,ENE,73,1.0,3.0,96,0.00,,,0.00,,2013-05-21 05:52:00,
2013-05-21 01:02:00,56.0,55.0,29.64,ESE,113,0.0,3.0,96,0.00,,,0.00,,2013-05-21 06:02:00,
2013-05-21 01:12:00,56.0,55.0,29.64,ESE,113,0.0,3.0,96,0.00,,,0.00,,2013-05-21 06:12:00,
2013-05-21 01:21:00,56.0,55.0,29.63,East,86,0.0,7.0,96,0.00,,,0.00,,2013-05-21 06:21:00,
2013-05-21 01:32:00,56.0,55.0,29.63,ENE,66,0.0,3.0,96,0.00,,,0.00,,2013-05-21 06:32:00,
2013-05-21 01:41:00,56.0,55.0,29.63,ENE,66,0.0,3.0,96,0.00,,,0.00,,2013-05-21 06:41:00,
2013-05-21 01:52:00,56.0,55.0,29.63,East,96,0.0,5.0,96,0.00,,,0.00,,2013-05-21 06:52:00,
2013-05-21 02:01:00,56.0,55.0,29.62,East,79,0.0,3.0,95,0.00,,,0.00,,2013-05-21 07:01:00,
2013-05-21 02:11:00,56.0,55.0,29.62,East,79,0.0,3.0,95,0.00,,,0.00,,2013-05-21 07:11:00,
2013-05-21 02:22:00,55.0,54.0,29.62,SE,125,0.0,3.0,95,0.00,,,0.00,,2013-05-21 07:22:00,
2013-05-21 02:31:00,55.0,54.0,29.61,SE,140,0.0,2.0,95,0.00,,,0.00,,2013-05-21 07:31:00,
2013-05-21 02:41:00,55.0,54.0,29.61,SE,140,0.0,2.0,95,0.00,,,0.00,,2013-05-21 07:41:00,
2013-05-21 02:52:00,55.0,54.0,29.60,East,91,0.0,1.0,95,0.00,,,0.00,,2013-05-21 07:52:00,
2013-05-21 03:02:00,54.0,53.0,29.60,East,101,0.0,4.0,95,0.00,,,0.00,,2013-05-21 08:02:00,
2013-05-21 03:11:00,54.0,53.0,29.60,East,101,0.0,4.0,95,0.00,,,0.00,,2013-05-21 08:11:00,
2013-05-21 03:21:00,54.0,53.0,29.60,ESE,110,1.0,5.0,95,0.00,,,0.00,,2013-05-21 08:21:00,
2013-05-21 03:31:00,54.0,52.0,29.61,North,6,0.0,3.0,94,0.00,,,0.00,,2013-05-21 08:31:00,
2013-05-21 03:41:00,54.0,53.0,29.60,ENE,63,1.0,6.0,95,0.00,,,0.00,,2013-05-21 08:41:00,
2013-05-21 03:52:00,54.0,53.0,29.60,ENE,63,1.0,6.0,95,0.00,,,0.00,,2013-05-21 08:52:00,
2013-05-21 04:01:00,54.0,53.0,29.64,SE,140,3.0,7.0,96,0.00,,,0.00,,2013-05-21 09:01:00,
2013-05-21 04:11:00,54.0,53.0,29.64,SE,140,3.0,7.0,96,0.00,,,0.00,,2013-05-21 09:11:00,
2013-05-21 04:21:00,53.0,52.0,29.62,ENE,71,1.0,3.0,96,0.07,,,0.07,,2013-05-21 09:21:00,
2013-05-21 04:32:00,53.0,52.0,29.62,SE,142,0.0,2.0,97,0.14,,,0.14,,2013-05-21 09:32:00,
2013-05-21 04:42:00,53.0,52.0,29.62,SE,142,0.0,2.0,97,0.14,,,0.14,,2013-05-21 09:42:00,
2013-05-21 04:53:00,53.0,52.0,29.62,East,91,0.0,3.0,97,0.17,,,0.17,,2013-05-21 09:53:00,
2013-05-21 05:02:00,53.0,52.0,29.62,East,92,0.0,3.0,97,0.20,,,0.20,,2013-05-21 10:02:00,
2013-05-21 05:12:00,53.0,52.0,29.62,East,92,0.0,3.0,97,0.20,,,0.20,,2013-05-21 10:12:00,
2013-05-21 05:22:00,53.0,52.0,29.61,East,98,0.0,1.0,97,0.14,,,0.21,,2013-05-21 10:22:00,
2013-05-21 05:32:00,53.0,52.0,29.61,SE,142,0.0,2.0,97,0.10,,,0.25,,2013-05-21 10:32:00,
2013-05-21 05:42:00,53.0,52.0,29.61,SE,142,0.0,2.0,97,0.10,,,0.25,,2013-05-21 10:42:00,
2013-05-21 05:52:00,54.0,53.0,29.60,East,91,0.0,1.0,98,0.12,,,0.28,,2013-05-21 10:52:00,
2013-05-21 06:02:00,54.0,53.0,29.59,ENE,77,0.0,2.0,98,0.13,,,0.33,,2013-05-21 11:02:00,
2013-05-21 06:12:00,54.0,53.0,29.59,ENE,77,0.0,2.0,98,0.13,,,0.33,,2013-05-21 11:12:00,
2013-05-21 06:21:00,54.0,53.0,29.59,ESE,102,0.0,3.0,98,0.13,,,0.34,,2013-05-21 11:21:00,
2013-05-21 06:32:00,54.0,53.0,29.58,ESE,104,0.0,2.0,98,0.09,,,0.34,,2013-05-21 11:32:00,
2013-05-21 06:41:00,54.0,53.0,29.58,ESE,104,0.0,2.0,98,0.09,,,0.34,,2013-05-21 11:41:00,
2013-05-21 06:52:00,54.0,53.0,29.58,East,87,0.0,3.0,98,0.05,,,0.34,,2013-05-21 11:52:00,
2013-05-21 07:01:00,55.0,54.0,29.58,ESE,108,0.0,4.0,98,0.01,,,0.34,,2013-05-21 12:01:00,
2013-05-21 07:11:00,55.0,54.0,29.58,ESE,108,0.0,4.0,98,0.01,,,0.34,,2013-05-21 12:11:00,
2013-05-21 07:21:00,55.0,54.0,29.58,ENE,72,1.0,3.0,98,0.00,,,0.34,,2013-05-21 12:21:00,
2013-05-21 07:31:00,55.0,54.0,29.58,ESE,110,0.0,3.0,98,0.00,,,0.34,,2013-05-21 12:31:00,
2013-05-21 07:42:00,55.0,54.0,29.58,ESE,110,0.0,3.0,98,0.00,,,0.34,,2013-05-21 12:42:00,
2013-05-21 07:52:00,55.0,54.0,29.58,ESE,108,0.0,2.0,98,0.00,,,0.34,,2013-05-21 12:52:00,
2013-05-21 08:01:00,55.0,54.0,29.58,ESE,108,0.0,2.0,98,0.00,,,0.34,,2013-05-21 13:01:00,
2013-05-21 08:12:00,55.0,54.0,29.58,ESE,108,0.0,2.0,98,0.00,,,0.34,,2013-05-21 13:12:00,
2013-05-21 08:22:00,55.0,54.0,29.58,ENE,64,2.0,5.0,98,0.20,,,0.54,,2013-05-21 13:22:00,
2013-05-21 08:32:00,55.0,54.0,29.59,East,83,1.0,3.0,98,0.20,,,0.54,,2013-05-21 13:32:00,
2013-05-21 08:42:00,55.0,54.0,29.59,East,83,1.0,3.0,98,0.20,,,0.54,,2013-05-21 13:42:00,
2013-05-21 08:52:00,55.0,54.0,29.59,ENE,71,1.0,4.0,98,0.20,,,0.54,,2013-05-21 13:52:00,
2013-05-21 09:01:00,56.0,55.0,29.60,SE,135,0.0,4.0,98,0.20,,,0.54,,2013-05-21 14:01:00,
2013-05-21 09:11:00,56.0,55.0,29.60,SE,135,0.0,4.0,98,0.20,,,0.54,,2013-05-21 14:11:00,
2013-05-21 09:21:00,56.0,55.0,29.60,NNE,20,0.0,4.0,98,0.00,,,0.54,,2013-05-21 14:21:00,
2013-05-21 09:31:00,56.0,55.0,29.60,SE,131,0.0,4.0,98,0.00,,,0.54,,2013-05-21 14:31:00,
2013-05-21 09:41:00,56.0,55.0,29.60,SE,131,0.0,4.0,98,0.00,,,0.54,,2013-05-21 14:41:00,
2013-05-21 09:52:00,57.0,56.0,29.60,West,267,0.0,4.0,98,0.00,,,0.54,,2013-05-21 14:52:00,
2013-05-21 10:01:00,57.0,56.0,29.60,ESE,120,0.0,3.0,98,0.00,,,0.54,,2013-05-21 15:01:00,
2013-05-21 10:11:00,57.0,56.0,29.60,ESE,120,0.0,3.0,98,0.00,,,0.54,,2013-05-21 15:11:00,
2013-05-21 10:21:00,58.0,57.0,29.60,ENE,58,1.0,3.0,98,0.00,,,0.54,,2013-05-21 15:21:00,
2013-05-21 10:33:00,58.0,57.0,29.60,East,91,1.0,6.0,98,0.00,,,0.54,,2013-05-21 15:33:00,
2013-05-21 10:42:00,59.0,58.0,29.60,SE,134,0.0,4.0,97,0.00,,,0.54,,2013-05-21 15:42:00,
2013-05-21 10:53:00,59.0,58.0,29.60,SE,134,0.0,4.0,97,0.00,,,0.54,,2013-05-21 15:53:00,
2013-05-21 11:03:00,59.0,58.0,29.60,SE,134,0.0,4.0,97,0.00,,,0.54,,2013-05-21 16:03:00,
2013-05-21 11:12:00,59.0,58.0,29.60,SE,134,0.0,4.0,97,0.00,,,0.54,,2013-05-21 16:12:00,
2013-05-21 11:23:00,59.0,58.0,29.60,SW,218,0.0,3.0,96,0.00,,,0.54,,2013-05-21 16:23:00,
2013-05-21 11:32:00,60.0,59.0,29.61,SE,142,0.0,3.0,95,0.00,,,0.54,,2013-05-21 16:32:00,
2013-05-21 11:42:00,59.0,58.0,29.61,East,96,1.0,3.0,95,0.00,,,0.54,,2013-05-21 16:42:00,
2013-05-21 11:53:00,59.0,58.0,29.61,East,96,1.0,3.0,95,0.00,,,0.54,,2013-05-21 16:53:00,
2013-05-21 12:02:00,59.0,58.0,29.60,ESE,123,0.0,3.0,96,0.00,,,0.54,,2013-05-21 17:02:00,
2013-05-21 12:12:00,59.0,58.0,29.60,ESE,123,0.0,3.0,96,0.00,,,0.54,,2013-05-21 17:12:00,
2013-05-21 12:23:00,61.0,59.0,29.60,SW,222,0.0,3.0,94,0.00,,,0.54,,2013-05-21 17:23:00,
2013-05-21 12:32:00,61.0,59.0,29.60,SE,128,0.0,3.0,93,0.00,,,0.54,,2013-05-21 17:32:00,
2013-05-21 12:43:00,62.0,60.0,29.60,NE,41,0.0,3.0,92,0.00,,,0.54,,2013-05-21 17:43:00,
2013-05-21 12:52:00,62.0,60.0,29.60,NE,41,0.0,3.0,92,0.00,,,0.54,,2013-05-21 17:52:00,
2013-05-21 13:01:00,62.0,59.0,29.59,NW,325,1.0,4.0,90,0.00,,,0.54,,2013-05-21 18:01:00,
2013-05-21 13:12:00,62.0,59.0,29.59,NW,325,1.0,4.0,90,0.00,,,0.54,,2013-05-21 18:12:00,
2013-05-21 13:22:00,62.0,59.0,29.59,NNE,26,1.0,4.0,91,0.00,,,0.54,,2013-05-21 18:22:00,
2013-05-21 13:32:00,62.0,60.0,29.58,North,358,0.0,3.0,92,0.00,,,0.54,,2013-05-21 18:32:00,
2013-05-21 13:42:00,63.0,60.0,29.57,WSW,243,0.0,3.0,89,0.00,,,0.54,,2013-05-21 18:42:00,
2013-05-21 13:52:00,63.0,60.0,29.57,WSW,243,0.0,3.0,89,0.00,,,0.54,,2013-05-21 18:52:00,
2013-05-21 14:01:00,63.0,60.0,29.58,ENE,78,0.0,3.0,89,0.00,,,0.54,,2013-05-21 19:01:00,
2013-05-21 14:11:00,63.0,60.0,29.58,ENE,78,0.0,3.0,89,0.00,,,0.54,,2013-05-21 19:11:00,
2013-05-21 14:21:00,63.0,60.0,29.58,NNW,344,0.0,2.0,89,0.00,,,0.54,,2013-05-21 19:21:00,
2013-05-21 14:32:00,63.0,59.0,29.58,North,5,1.0,3.0,86,0.00,,,0.54,,2013-05-21 19:32:00,
2013-05-21 14:42:00,63.0,59.0,29.58,North,5,1.0,3.0,86,0.00,,,0.54,,2013-05-21 19:42:00,
2013-05-21 14:52:00,64.0,60.0,29.58,SE,145,0.0,2.0,86,0.00,,,0.54,,2013-05-21 19:52:00,
2013-05-21 15:03:00,64.0,59.0,29.58,SSE,163,0.0,2.0,85,0.00,,,0.54,,2013-05-21 20:03:00,
2013-05-21 15:11:00,64.0,59.0,29.58,SSE,163,0.0,2.0,85,0.00,,,0.54,,2013-05-21 20:11:00,
2013-05-21 15:22:00,64.0,60.0,29.58,SSE,150,0.0,1.0,87,0.00,,,0.54,,2013-05-21 20:22:00,
2013-05-21 15:32:00,63.0,59.0,29.59,SSE,168,0.0,0.0,88,0.01,,,0.55,,2013-05-21 20:32:00,
2013-05-21 15:42:00,63.0,59.0,29.59,SSE,168,0.0,0.0,88,0.01,,,0.55,,2013-05-21 20:42:00,
2013-05-21 15:52:00,62.0,60.0,29.57,SSE,168,0.0,0.0,92,0.02,,,0.56,,2013-05-21 20:52:00,
2013-05-21 16:02:00,61.0,59.0,29.58,ESE,122,0.0,1.0,94,0.04,,,0.57,,2013-05-21 21:02:00,
2013-05-21 16:11:00,61.0,59.0,29.58,ESE,122,0.0,1.0,94,0.04,,,0.57,,2013-05-21 21:11:00,
2013-05-21 16:21:00,61.0,60.0,29.59,ESE,123,0.0,1.0,95,0.05,,,0.59,,2013-05-21 21:21:00,
2013-05-21 16:32:00,61.0,60.0,29.59,ESE,123,0.0,1.0,95,0.05,,,0.59,,2013-05-21 21:32:00,
2013-05-21 16:43:00,61.0,60.0,29.59,ESE,123,0.0,1.0,95,0.05,,,0.59,,2013-05-21 21:43:00,
2013-05-21 16:54:00,60.0,59.0,29.60,ESE,121,0.0,0.0,96,0.21,,,0.77,,2013-05-21 21:54:00,
2013-05-21 17:02:00,60.0,59.0,29.60,ESE,123,0.0,0.0,97,0.24,,,0.82,,2013-05-21 22:02:00,
2013-05-21 17:12:00,60.0,59.0,29.60,ESE,123,0.0,0.0,97,0.24,,,0.82,,2013-05-21 22:12:00,
2013-05-21 17:22:00,60.0,59.0,29.60,ESE,123,0.0,0.0,97,0.26,,,0.85,,2013-05-21 22:22:00,
2013-05-21 17:33:00,61.0,60.0,29.59,ESE,123,0.0,0.0,97,0.23,,,0.87,,2013-05-21 22:33:00,
2013-05-21 17:42:00,61.0,60.0,29.59,ESE,123,0.0,0.0,97,0.23,,,0.87,,2013-05-21 22:42:00,
2013-05-21 17:53:00,61.0,60.0,29.59,SE,142,0.0,1.0,97,0.10,,,0.87,,2013-05-21 22:53:00,
2013-05-21 18:02:00,61.0,60.0,29.59,ESE,107,0.0,2.0,97,0.05,,,0.87,,2013-05-21 23:02:00,
2013-05-21 18:12:00,61.0,60.0,29.59,ESE,107,0.0,2.0,97,0.05,,,0.87,,2013-05-21 23:12:00,
2013-05-21 18:22:00,61.0,60.0,29.60,East,80,0.0,1.0,97,0.02,,,0.87,,2013-05-21 23:22:00,
2013-05-21 18:32:00,61.0,60.0,29.60,SE,128,0.0,3.0,96,0.00,,,0.87,,2013-05-21 23:32:00,
2013-05-21 18:42:00,61.0,60.0,29.59,East,82,0.0,1.0,96,0.00,,,0.87,,2013-05-21 23:42:00,
2013-05-21 18:52:00,61.0,60.0,29.59,East,82,0.0,1.0,96,0.00,,,0.87,,2013-05-21 23:52:00,
2013-05-21 19:01:00,61.0,60.0,29.60,ENE,75,0.0,1.0,96,0.00,,,0.87,,2013-05-22 00:01:00,
2013-05-21 19:11:00,61.0,60.0,29.60,ENE,75,0.0,1.0,96,0.00,,,0.87,,2013-05-22 00:11:00,
2013-05-21 19:21:00,61.0,60.0,29.60,ENE,68,0.0,0.0,97,0.00,,,0.87,,2013-05-22 00:21:00,
2013-05-21 19:32:00,61.0,60.0,29.61,ENE,68,0.0,0.0,97,0.00,,,0.87,,2013-05-22 00:32:00,
2013-05-21 19:41:00,61.0,60.0,29.61,ENE,68,0.0,0.0,97,0.00,,,0.87,,2013-05-22 00:41:00,
2013-05-21 19:52:00,61.0,60.0,29.61,ENE,68,0.0,0.0,97,0.00,,,0.87,,2013-05-22 00:52:00,
2013-05-21 20:01:00,61.0,60.0,29.61,ENE,68,0.0,0.0,97,0.00,,,0.87,,2013-05-22 01:01:00,
2013-05-21 20:11:00,61.0,60.0,29.61,ENE,68,0.0,0.0,97,0.00,,,0.87,,2013-05-22 01:11:00,
2013-05-21 20:21:00,60.0,59.0,29.62,ENE,68,0.0,0.0,97,0.00,,,0.87,,2013-05-22 01:21:00,
2013-05-21 20:32:00,60.0,59.0,29.62,ENE,68,0.0,0.0,97,0.00,,,0.87,,2013-05-22 01:32:00,
2013-05-21 20:41:00,60.0,59.0,29.62,ENE,68,0.0,0.0,98,0.00,,,0.87,,2013-05-22 01:41:00,
2013-05-21 20:52:00,60.0,59.0,29.62,ENE,68,0.0,0.0,98,0.00,,,0.87,,2013-05-22 01:52:00,
2013-05-21 21:01:00,60.0,59.0,29.62,ENE,68,0.0,0.0,97,0.00,,,0.87,,2013-05-22 02:01:00,
2013-05-21 21:11:00,60.0,59.0,29.62,ENE,68,0.0,0.0,97,0.00,,,0.87,,2013-05-22 02:11:00,
2013-05-21 21:21:00,60.0,59.0,29.62,ENE,68,0.0,0.0,98,0.00,,,0.87,,2013-05-22 02:21:00,
2013-05-21 21:32:00,60.0,59.0,29.64,ENE,76,0.0,0.0,98,0.00,,,0.87,,2013-05-22 02:32:00,
2013-05-21 21:42:00,60.0,59.0,29.63,SE,142,0.0,1.0,98,0.00,,,0.87,,2013-05-22 02:42:00,
2013-05-21 21:52:00,60.0,59.0,29.63,SE,142,0.0,1.0,98,0.00,,,0.87,,2013-05-22 02:52:00,
2013-05-21 22:01:00,59.0,58.0,29.64,SE,138,0.0,1.0,98,0.00,,,0.87,,2013-05-22 03:01:00,
2013-05-21 22:11:00,59.0,58.0,29.64,SE,138,0.0,1.0,98,0.00,,,0.87,,2013-05-22 03:11:00,
2013-05-21 22:21:00,59.0,58.0,29.65,ESE,104,0.0,2.0,98,0.00,,,0.87,,2013-05-22 03:21:00,
2013-05-21 22:33:00,59.0,58.0,29.66,ESE,115,0.0,1.0,98,0.00,,,0.87,,2013-05-22 03:33:00,
2013-05-21 22:43:00,59.0,58.0,29.66,ESE,116,0.0,0.0,98,0.00,,,0.87,,2013-05-22 03:43:00,
2013-05-21 22:53:00,59.0,58.0,29.66,ESE,116,0.0,0.0,98,0.00,,,0.87,,2013-05-22 03:53:00,
2013-05-21 23:03:00,59.0,58.0,29.66,ESE,110,0.0,2.0,98,0.00,,,0.87,,2013-05-22 04:03:00,
2013-05-21 23:13:00,59.0,58.0,29.66,ESE,110,0.0,2.0,98,0.00,,,0.87,,2013-05-22 04:13:00,
2013-05-21 23:23:00,59.0,58.0,29.66,SE,125,0.0,1.0,98,0.00,,,0.87,,2013-05-22 04:23:00,
2013-05-21 23:33:00,59.0,58.0,29.66,SE,125,0.0,1.0,98,0.00,,,0.87,,2013-05-22 04:33:00,
2013-05-21 23:43:00,59.0,58.0,29.66,ESE,122,0.0,0.0,98,0.01,,,0.88,,2013-05-22 04:43:00,
2013-05-21 23:53:00,59.0,58.0,29.66,ESE,122,0.0,0.0,98,0.01,,,0.88,,2013-05-22 04:53:00,